Time;durP1;ratioP1;P1;durP2;ratioP2;P2;SDS_P1;SDS_P2;PMS_P1;PMS_P2;Temp;Humidity;BMP_temperature;BMP_pressure;BME280_temperature;BME280_humidity;BME280_pressure;Samples;Min_cycle;Max_cycle;Signal;HPM_P1;HPM_P2
2023/08/05 00:00:11;;;;;;;;;;;15.50;99.90;;;;;;5011511;28;19906;-69
2023/08/05 00:02:39;;;;;;;;;;;15.60;99.90;;;;;;5011008;28;19917;-67
2023/08/05 00:05:07;;;;;;;;;;;15.80;99.90;;;;;;5005821;28;19920;-67
2023/08/05 00:07:34;;;;;;;;;;;15.90;99.90;;;;;;5008252;28;19909;-67
2023/08/05 00:10:00;;;;;;;;;;;16.00;99.90;;;;;;5011502;28;20394;-67
2023/08/05 00:12:27;;;;;;;;;;;16.10;99.90;;;;;;5008739;28;20258;-68
2023/08/05 00:14:54;;;;;;;;;;;16.20;99.90;;;;;;4984076;28;20314;-68
2023/08/05 00:17:21;;;;;;;;;;;16.40;99.90;;;;;;5002705;28;24072;-67
2023/08/05 00:19:48;;;;;;;;;;;16.70;99.90;;;;;;4982542;28;19987;-68
2023/08/05 00:22:15;;;;;;;;;;;17.00;99.90;;;;;;5008659;28;19909;-69
2023/08/05 00:24:42;;;;;;;;;;;17.50;99.90;;;;;;5009480;28;20000;-69
2023/08/05 00:27:09;;;;;;;;;;;17.60;99.90;;;;;;5009253;28;19917;-68
2023/08/05 00:29:36;;;;;;;;;;;17.60;99.90;;;;;;5012923;28;24076;-69
2023/08/05 00:32:03;;;;;;;;;;;17.70;99.90;;;;;;4977085;28;20319;-68
2023/08/05 00:34:29;;;;;;;;;;;17.80;99.90;;;;;;5002270;28;19921;-68
2023/08/05 00:36:56;;;;;;;;;;;17.80;99.90;;;;;;5013788;28;20441;-68
2023/08/05 00:39:23;;;;;;;;;;;18.00;99.90;;;;;;5013737;28;20385;-68
2023/08/05 00:41:50;;;;;;;;;;;18.20;99.90;;;;;;5010696;28;19909;-69
2023/08/05 00:44:17;;;;;;;;;;;18.40;99.90;;;;;;5013444;28;25124;-68
2023/08/05 00:46:44;;;;;;;;;;;18.50;99.90;;;;;;5010080;28;19980;-68
2023/08/05 00:49:11;;;;;;;;;;;18.60;99.90;;;;;;4985445;28;25142;-69
2023/08/05 00:51:39;;;;;;;;;;;18.90;99.90;;;;;;5005917;28;24136;-69
2023/08/05 00:54:05;;;;;;;;;;;18.90;99.90;;;;;;5006687;28;24070;-67
2023/08/05 00:56:32;;;;;;;;;;;19.00;99.90;;;;;;5010675;28;24129;-70
2023/08/05 00:58:59;;;;;;;;;;;19.00;99.90;;;;;;5013501;28;19909;-68
2023/08/05 01:01:26;;;;;;;;;;;18.90;99.90;;;;;;5011784;28;25082;-68
2023/08/05 01:03:53;;;;;;;;;;;18.60;99.90;;;;;;5010947;28;19909;-67
2023/08/05 01:06:21;;;;;;;;;;;18.40;99.90;;;;;;5011665;28;19944;-68
2023/08/05 01:08:49;;;;;;;;;;;18.30;99.90;;;;;;5011242;28;24080;-69
2023/08/05 01:11:16;;;;;;;;;;;18.10;99.90;;;;;;5010716;28;25118;-67
2023/08/05 01:13:44;;;;;;;;;;;18.10;99.90;;;;;;5011478;28;24075;-68
2023/08/05 01:16:11;;;;;;;;;;;18.10;99.90;;;;;;5011262;28;24062;-66
2023/08/05 01:18:38;;;;;;;;;;;18.10;99.90;;;;;;5011353;28;20385;-68
2023/08/05 01:21:10;;;;;;;;;;;18.00;99.90;;;;;;5013017;28;19975;-69
2023/08/05 01:23:55;;;;;;;;;;;18.00;99.90;;;;;;5012751;28;19909;-68
2023/08/05 01:26:22;;;;;;;;;;;18.00;99.90;;;;;;4995149;28;20022;-68
2023/08/05 01:28:49;;;;;;;;;;;18.10;99.90;;;;;;5013114;28;20445;-69
2023/08/05 01:31:16;;;;;;;;;;;18.20;99.90;;;;;;5012366;28;24081;-69
2023/08/05 01:33:43;;;;;;;;;;;18.30;99.90;;;;;;5016066;28;20427;-69
2023/08/05 01:36:18;;;;;;;;;;;18.40;99.90;;;;;;4995080;28;20333;-68
2023/08/05 01:38:46;;;;;;;;;;;18.40;99.90;;;;;;5012256;28;19909;-68
2023/08/05 01:41:13;;;;;;;;;;;18.40;99.90;;;;;;5011948;28;20411;-70
2023/08/05 01:43:40;;;;;;;;;;;18.50;99.90;;;;;;5012155;28;25126;-68
2023/08/05 01:46:07;;;;;;;;;;;18.60;99.90;;;;;;5012718;28;19909;-68
2023/08/05 01:48:34;;;;;;;;;;;18.60;99.90;;;;;;5012853;28;20375;-69
2023/08/05 01:51:00;;;;;;;;;;;18.60;99.90;;;;;;5013278;28;24072;-68
2023/08/05 01:53:27;;;;;;;;;;;18.60;99.90;;;;;;5013264;28;19909;-68
2023/08/05 01:55:54;;;;;;;;;;;18.60;99.90;;;;;;5012266;28;24067;-68
2023/08/05 01:58:21;;;;;;;;;;;18.60;99.90;;;;;;5012604;28;24100;-69
2023/08/05 02:00:51;;;;;;;;;;;18.60;99.90;;;;;;5012783;28;20270;-68
2023/08/05 02:03:18;;;;;;;;;;;18.50;99.90;;;;;;4996243;28;19959;-69
2023/08/05 02:05:46;;;;;;;;;;;18.50;99.90;;;;;;5014850;28;20017;-68
2023/08/05 02:08:13;;;;;;;;;;;18.60;99.90;;;;;;5013462;28;24055;-68
2023/08/05 02:10:40;;;;;;;;;;;18.60;99.90;;;;;;5013675;28;19909;-68
2023/08/05 02:13:07;;;;;;;;;;;18.70;99.90;;;;;;5014036;28;19905;-68
2023/08/05 02:15:34;;;;;;;;;;;18.80;99.90;;;;;;5014045;28;25099;-68
2023/08/05 02:18:03;;;;;;;;;;;18.80;99.90;;;;;;5013811;28;19905;-68
2023/08/05 02:20:30;;;;;;;;;;;18.90;99.90;;;;;;4994255;28;20387;-68
2023/08/05 02:22:57;;;;;;;;;;;19.00;99.90;;;;;;5011419;28;19909;-69
2023/08/05 02:25:24;;;;;;;;;;;19.10;99.90;;;;;;5011628;28;24072;-68
2023/08/05 02:27:51;;;;;;;;;;;19.00;99.90;;;;;;5011359;28;25420;-68
2023/08/05 02:30:18;;;;;;;;;;;19.10;99.90;;;;;;5011848;28;19909;-69
2023/08/05 02:32:45;;;;;;;;;;;19.10;99.90;;;;;;5010698;28;24057;-70
2023/08/05 02:35:12;;;;;;;;;;;19.10;99.90;;;;;;4991418;28;24069;-68
2023/08/05 02:37:39;;;;;;;;;;;19.10;99.90;;;;;;4991825;28;24061;-70
2023/08/05 02:40:06;;;;;;;;;;;19.10;99.90;;;;;;4991737;28;19912;-68
2023/08/05 02:42:33;;;;;;;;;;;19.00;99.90;;;;;;4991645;28;20291;-69
2023/08/05 02:45:01;;;;;;;;;;;19.00;99.90;;;;;;4992072;28;19909;-68
2023/08/05 02:47:28;;;;;;;;;;;19.00;99.90;;;;;;4991620;28;20168;-68
2023/08/05 02:49:55;;;;;;;;;;;19.00;99.90;;;;;;4990135;28;20327;-69
2023/08/05 02:52:22;;;;;;;;;;;19.00;99.90;;;;;;4991925;28;20007;-68
2023/08/05 02:54:49;;;;;;;;;;;19.10;99.90;;;;;;4991666;28;19920;-69
2023/08/05 02:57:15;;;;;;;;;;;19.10;99.90;;;;;;4991691;28;19941;-68
2023/08/05 02:59:42;;;;;;;;;;;19.00;99.90;;;;;;4991934;28;24073;-68
2023/08/05 03:02:09;;;;;;;;;;;18.80;99.90;;;;;;4991270;28;20031;-67
2023/08/05 03:04:36;;;;;;;;;;;18.70;99.90;;;;;;4991331;28;24069;-69
2023/08/05 03:07:03;;;;;;;;;;;18.60;99.90;;;;;;4991693;28;24061;-69
2023/08/05 03:09:30;;;;;;;;;;;18.70;99.90;;;;;;4991326;28;20009;-68
2023/08/05 03:11:57;;;;;;;;;;;18.70;99.90;;;;;;5005705;28;20541;-68
2023/08/05 03:14:23;;;;;;;;;;;18.80;99.90;;;;;;5010995;28;24104;-67
2023/08/05 03:16:50;;;;;;;;;;;18.90;99.90;;;;;;5010850;28;24060;-68
2023/08/05 03:19:17;;;;;;;;;;;18.90;99.90;;;;;;5010524;28;25057;-69
2023/08/05 03:21:44;;;;;;;;;;;18.90;99.90;;;;;;4993272;28;24114;-68
2023/08/05 03:24:11;;;;;;;;;;;18.90;99.90;;;;;;5011014;28;19933;-67
2023/08/05 03:26:37;;;;;;;;;;;18.80;99.90;;;;;;5010217;28;24081;-68
2023/08/05 03:29:04;;;;;;;;;;;18.70;99.90;;;;;;5007428;28;19910;-71
2023/08/05 03:31:31;;;;;;;;;;;18.60;99.90;;;;;;5010968;28;20347;-69
2023/08/05 03:33:58;;;;;;;;;;;18.60;99.90;;;;;;5009225;28;25066;-70
2023/08/05 03:36:25;;;;;;;;;;;18.60;99.90;;;;;;5010768;28;24134;-68
2023/08/05 03:38:52;;;;;;;;;;;18.50;99.90;;;;;;5010785;28;19963;-70
2023/08/05 03:41:19;;;;;;;;;;;18.40;99.90;;;;;;5010073;28;19910;-69
2023/08/05 03:43:46;;;;;;;;;;;18.40;99.90;;;;;;5010464;28;24064;-70
2023/08/05 03:46:13;;;;;;;;;;;18.40;99.90;;;;;;4991115;28;19910;-71
2023/08/05 03:48:39;;;;;;;;;;;18.20;99.90;;;;;;4990443;28;19906;-69
2023/08/05 03:51:06;;;;;;;;;;;18.10;99.90;;;;;;4991084;28;19960;-68
2023/08/05 03:53:35;;;;;;;;;;;18.00;99.90;;;;;;4990703;28;24081;-68
2023/08/05 03:56:02;;;;;;;;;;;17.90;99.90;;;;;;5005891;28;19921;-69
2023/08/05 03:58:29;;;;;;;;;;;17.80;99.90;;;;;;5010496;28;19909;-67
2023/08/05 04:00:56;;;;;;;;;;;17.80;99.90;;;;;;5010984;28;25049;-68
2023/08/05 04:03:23;;;;;;;;;;;17.60;99.90;;;;;;5014000;28;19916;-68
2023/08/05 04:05:50;;;;;;;;;;;17.60;99.90;;;;;;5014238;28;20366;-69
2023/08/05 04:08:18;;;;;;;;;;;17.60;99.90;;;;;;5014301;28;19925;-72
2023/08/05 04:10:45;;;;;;;;;;;17.60;99.90;;;;;;5014334;28;20030;-68
2023/08/05 04:13:16;;;;;;;;;;;17.50;99.90;;;;;;5014500;28;24060;-67
2023/08/05 04:15:45;;;;;;;;;;;17.40;99.90;;;;;;5013396;28;19918;-68
2023/08/05 04:18:11;;;;;;;;;;;17.30;99.90;;;;;;5013505;28;24057;-68
2023/08/05 04:20:40;;;;;;;;;;;17.20;99.90;;;;;;5014396;28;19909;-68
2023/08/05 04:23:09;;;;;;;;;;;17.20;99.90;;;;;;4993986;28;19920;-68
2023/08/05 04:25:35;;;;;;;;;;;17.20;99.90;;;;;;5013883;28;25107;-68
2023/08/05 04:28:02;;;;;;;;;;;17.20;99.90;;;;;;5012874;28;24071;-69
2023/08/05 04:30:29;;;;;;;;;;;17.20;99.90;;;;;;5012239;28;19905;-69
2023/08/05 04:32:56;;;;;;;;;;;17.20;99.90;;;;;;5012188;28;24080;-70
2023/08/05 04:35:23;;;;;;;;;;;17.20;99.90;;;;;;5012410;28;20001;-69
2023/08/05 04:37:50;;;;;;;;;;;17.20;99.90;;;;;;5013086;28;24070;-69
2023/08/05 04:40:17;;;;;;;;;;;17.20;99.90;;;;;;5013786;28;19924;-72
2023/08/05 04:42:45;;;;;;;;;;;17.20;99.90;;;;;;5013431;28;19913;-69
2023/08/05 04:45:12;;;;;;;;;;;17.20;99.90;;;;;;5012891;28;24063;-68
2023/08/05 04:47:40;;;;;;;;;;;17.20;99.90;;;;;;5013768;28;19979;-69
2023/08/05 04:50:07;;;;;;;;;;;17.20;99.90;;;;;;5014037;28;19913;-70
2023/08/05 04:52:34;;;;;;;;;;;17.30;99.90;;;;;;4995861;28;20000;-69
2023/08/05 04:55:10;;;;;;;;;;;17.30;99.90;;;;;;5013032;28;25053;-69
2023/08/05 04:57:37;;;;;;;;;;;17.30;99.90;;;;;;5013766;28;24096;-68
2023/08/05 05:00:04;;;;;;;;;;;17.30;99.90;;;;;;4995534;28;24114;-69
2023/08/05 05:02:31;;;;;;;;;;;17.20;99.90;;;;;;5013835;28;19913;-69
2023/08/05 05:04:58;;;;;;;;;;;17.20;99.90;;;;;;5013380;28;20278;-69
2023/08/05 05:07:25;;;;;;;;;;;17.20;99.90;;;;;;5012848;28;20421;-69
2023/08/05 05:09:52;;;;;;;;;;;17.30;99.90;;;;;;5017474;28;20004;-69
2023/08/05 05:12:19;;;;;;;;;;;17.20;99.90;;;;;;5015402;28;19955;-69
2023/08/05 05:14:46;;;;;;;;;;;17.20;99.90;;;;;;5013107;28;20575;-68
2023/08/05 05:17:15;;;;;;;;;;;17.10;99.90;;;;;;5013043;28;19912;-69
2023/08/05 05:19:42;;;;;;;;;;;17.10;99.90;;;;;;5015336;28;24105;-69
2023/08/05 05:22:10;;;;;;;;;;;17.10;99.90;;;;;;5014776;28;24062;-69
2023/08/05 05:24:36;;;;;;;;;;;17.10;99.90;;;;;;4997249;28;20286;-70
2023/08/05 05:27:03;;;;;;;;;;;17.10;99.90;;;;;;4997134;28;19906;-69
2023/08/05 05:29:30;;;;;;;;;;;17.10;99.90;;;;;;5014644;28;19968;-69
2023/08/05 05:31:57;;;;;;;;;;;17.10;99.90;;;;;;5014824;28;19937;-68
2023/08/05 05:34:25;;;;;;;;;;;17.10;99.90;;;;;;5014943;28;24071;-68
2023/08/05 05:36:52;;;;;;;;;;;17.10;99.90;;;;;;4996696;28;20367;-68
2023/08/05 05:39:19;;;;;;;;;;;17.20;99.90;;;;;;5014783;28;19912;-69
2023/08/05 05:41:46;;;;;;;;;;;17.20;99.90;;;;;;5014086;28;20352;-69
2023/08/05 05:44:12;;;;;;;;;;;17.20;99.90;;;;;;5014470;28;19909;-68
2023/08/05 05:46:39;;;;;;;;;;;17.30;99.90;;;;;;4995143;28;24081;-70
2023/08/05 05:49:06;;;;;;;;;;;17.40;99.90;;;;;;5013501;28;24065;-68
2023/08/05 05:51:34;;;;;;;;;;;17.50;99.90;;;;;;5012221;28;19905;-68
2023/08/05 05:54:01;;;;;;;;;;;17.50;99.90;;;;;;5012155;28;19916;-69
2023/08/05 05:56:28;;;;;;;;;;;17.50;99.90;;;;;;5012061;28;19917;-71
2023/08/05 05:58:55;;;;;;;;;;;17.40;99.90;;;;;;5011962;28;19905;-68
2023/08/05 06:01:23;;;;;;;;;;;17.40;99.90;;;;;;5012235;28;19905;-70
2023/08/05 06:03:50;;;;;;;;;;;17.40;99.90;;;;;;5011987;28;24111;-68
2023/08/05 06:06:17;;;;;;;;;;;17.30;99.90;;;;;;5012415;28;19909;-69
2023/08/05 06:08:44;;;;;;;;;;;17.20;99.90;;;;;;5012502;28;19913;-69
2023/08/05 06:11:11;;;;;;;;;;;17.20;99.90;;;;;;5012887;28;19905;-69
2023/08/05 06:13:38;;;;;;;;;;;17.10;99.90;;;;;;5012738;28;19906;-69
2023/08/05 06:16:05;;;;;;;;;;;17.10;99.90;;;;;;5013669;28;24104;-69
2023/08/05 06:18:32;;;;;;;;;;;17.00;99.90;;;;;;5014478;28;19912;-69
2023/08/05 06:20:59;;;;;;;;;;;17.00;99.90;;;;;;5013951;28;24052;-68
2023/08/05 06:23:26;;;;;;;;;;;17.00;99.90;;;;;;5013385;28;20087;-69
2023/08/05 06:25:53;;;;;;;;;;;17.00;99.90;;;;;;5014161;28;19905;-68
2023/08/05 06:28:19;;;;;;;;;;;17.00;99.90;;;;;;5013709;28;19992;-68
2023/08/05 06:30:46;;;;;;;;;;;16.90;99.90;;;;;;4995890;28;25139;-67
2023/08/05 06:33:13;;;;;;;;;;;16.80;99.90;;;;;;5013987;28;20394;-68
2023/08/05 06:35:40;;;;;;;;;;;16.70;99.90;;;;;;5013953;28;24110;-69
2023/08/05 06:38:07;;;;;;;;;;;16.80;99.90;;;;;;5013448;28;19913;-68
2023/08/05 06:40:34;;;;;;;;;;;16.70;99.90;;;;;;5013852;28;19905;-67
2023/08/05 06:43:01;;;;;;;;;;;16.70;99.90;;;;;;4995901;28;19905;-68
2023/08/05 06:45:28;;;;;;;;;;;16.60;99.90;;;;;;5013749;28;20409;-67
2023/08/05 06:47:55;;;;;;;;;;;16.50;99.90;;;;;;4996027;28;19928;-68
2023/08/05 06:50:22;;;;;;;;;;;16.40;99.90;;;;;;5013874;28;19905;-68
2023/08/05 06:52:48;;;;;;;;;;;16.40;99.90;;;;;;5013861;28;19929;-69
2023/08/05 06:55:18;;;;;;;;;;;16.40;99.90;;;;;;5013503;28;19913;-68
2023/08/05 06:57:48;;;;;;;;;;;16.30;99.90;;;;;;5013712;28;19906;-67
2023/08/05 07:00:16;;;;;;;;;;;16.20;99.90;;;;;;5013816;28;19905;-68
2023/08/05 07:02:43;;;;;;;;;;;16.10;99.90;;;;;;5013257;28;24163;-67
2023/08/05 07:05:10;;;;;;;;;;;16.10;99.90;;;;;;5013310;28;20347;-68
2023/08/05 07:07:37;;;;;;;;;;;16.00;99.90;;;;;;5013229;28;20307;-67
2023/08/05 07:10:07;;;;;;;;;;;15.90;99.90;;;;;;5012782;28;19960;-67
2023/08/05 07:12:34;;;;;;;;;;;15.90;99.90;;;;;;5013396;28;20413;-67
2023/08/05 07:15:01;;;;;;;;;;;15.80;99.90;;;;;;5012950;28;25077;-68
2023/08/05 07:17:28;;;;;;;;;;;15.80;99.90;;;;;;5013474;28;19912;-67
2023/08/05 07:19:55;;;;;;;;;;;15.70;99.90;;;;;;5013109;28;24081;-68
2023/08/05 07:22:22;;;;;;;;;;;15.70;99.90;;;;;;5012881;28;19905;-68
2023/08/05 07:24:49;;;;;;;;;;;15.60;99.90;;;;;;5013436;28;19906;-66
2023/08/05 07:27:16;;;;;;;;;;;15.50;99.90;;;;;;5013762;28;25118;-67
2023/08/05 07:29:43;;;;;;;;;;;15.50;99.90;;;;;;5013302;28;19905;-68
2023/08/05 07:32:10;;;;;;;;;;;15.50;99.90;;;;;;5012997;28;19912;-68
2023/08/05 07:34:37;;;;;;;;;;;15.40;99.90;;;;;;5012760;28;19962;-67
2023/08/05 07:37:05;;;;;;;;;;;15.40;99.90;;;;;;5012194;28;19913;-67
2023/08/05 07:39:35;;;;;;;;;;;15.40;99.90;;;;;;5012632;28;19941;-67
2023/08/05 07:42:03;;;;;;;;;;;15.40;99.90;;;;;;5012907;28;20122;-69
2023/08/05 07:44:33;;;;;;;;;;;15.40;99.90;;;;;;5012714;28;24130;-68
2023/08/05 07:47:00;;;;;;;;;;;15.30;99.90;;;;;;5012686;28;19909;-67
2023/08/05 07:49:27;;;;;;;;;;;15.30;99.90;;;;;;5012899;28;19910;-67
2023/08/05 07:51:54;;;;;;;;;;;15.30;99.90;;;;;;5012856;28;19952;-67
2023/08/05 07:54:21;;;;;;;;;;;15.30;99.90;;;;;;5012721;28;20154;-67
2023/08/05 07:56:48;;;;;;;;;;;15.20;99.90;;;;;;5012572;28;24075;-67
2023/08/05 07:59:17;;;;;;;;;;;15.20;99.90;;;;;;5012545;28;20271;-68
2023/08/05 08:01:45;;;;;;;;;;;15.20;99.90;;;;;;5012470;28;20244;-68
2023/08/05 08:04:14;;;;;;;;;;;15.10;99.90;;;;;;5012458;28;19905;-67
2023/08/05 08:06:43;;;;;;;;;;;15.00;99.90;;;;;;5012821;28;24155;-69
2023/08/05 08:09:11;;;;;;;;;;;15.00;99.90;;;;;;5012450;28;19921;-68
2023/08/05 08:11:38;;;;;;;;;;;15.00;99.90;;;;;;5012367;28;24070;-68
2023/08/05 08:14:05;;;;;;;;;;;14.90;99.90;;;;;;5012624;28;19921;-69
2023/08/05 08:16:32;;;;;;;;;;;14.90;99.90;;;;;;5012685;28;20044;-68
2023/08/05 08:18:59;;;;;;;;;;;14.90;99.90;;;;;;5012010;28;19928;-69
2023/08/05 08:21:26;;;;;;;;;;;14.90;99.90;;;;;;5012521;28;19909;-68
2023/08/05 08:23:53;;;;;;;;;;;14.80;99.90;;;;;;5012312;28;24086;-68
2023/08/05 08:26:20;;;;;;;;;;;14.70;99.90;;;;;;5011628;28;20386;-68
2023/08/05 08:28:46;;;;;;;;;;;14.70;99.90;;;;;;5011622;28;19913;-68
2023/08/05 08:31:13;;;;;;;;;;;14.60;99.90;;;;;;5011680;28;19909;-68
2023/08/05 08:33:40;;;;;;;;;;;14.50;99.90;;;;;;5012388;28;25156;-69
2023/08/05 08:36:07;;;;;;;;;;;14.50;99.90;;;;;;5011863;28;19924;-69
2023/08/05 08:38:34;;;;;;;;;;;14.50;99.90;;;;;;5012235;28;19948;-69
2023/08/05 08:41:03;;;;;;;;;;;14.60;99.90;;;;;;4992497;28;20348;-68
2023/08/05 08:43:31;;;;;;;;;;;14.60;99.90;;;;;;4992323;28;19997;-69
2023/08/05 08:45:58;;;;;;;;;;;14.60;99.90;;;;;;4992906;28;19906;-69
2023/08/05 08:48:25;;;;;;;;;;;14.70;99.90;;;;;;4995442;28;19912;-69
2023/08/05 08:50:53;;;;;;;;;;;14.70;99.90;;;;;;4996467;28;20354;-68
2023/08/05 08:53:21;;;;;;;;;;;14.70;99.90;;;;;;5013691;28;24082;-68
2023/08/05 08:55:47;;;;;;;;;;;14.80;99.90;;;;;;5015699;28;19913;-69
2023/08/05 08:58:14;;;;;;;;;;;14.80;99.90;;;;;;5015833;28;24074;-68
2023/08/05 09:00:42;;;;;;;;;;;14.80;99.90;;;;;;5015592;28;20371;-68
2023/08/05 09:03:10;;;;;;;;;;;14.80;99.90;;;;;;5015083;28;24098;-68
2023/08/05 09:05:47;;;;;;;;;;;14.80;99.90;;;;;;5014834;28;20000;-69
2023/08/05 09:08:14;;;;;;;;;;;14.80;99.90;;;;;;5015051;28;19945;-69
2023/08/05 09:10:40;;;;;;;;;;;14.80;99.90;;;;;;5014332;28;19913;-68
2023/08/05 09:13:08;;;;;;;;;;;14.80;99.90;;;;;;5015650;28;19992;-68
2023/08/05 09:15:38;;;;;;;;;;;14.80;99.90;;;;;;5013823;28;19917;-69
2023/08/05 09:18:08;;;;;;;;;;;14.90;99.90;;;;;;5014893;28;20383;-68
2023/08/05 09:20:35;;;;;;;;;;;14.80;99.90;;;;;;5015164;28;20032;-67
2023/08/05 09:23:03;;;;;;;;;;;14.80;99.90;;;;;;5015149;28;20351;-68
2023/08/05 09:25:31;;;;;;;;;;;14.90;99.90;;;;;;5015078;28;19909;-66
2023/08/05 09:28:00;;;;;;;;;;;14.80;99.90;;;;;;5015039;28;19913;-69
2023/08/05 09:30:27;;;;;;;;;;;14.80;99.90;;;;;;5014829;28;24081;-67
2023/08/05 09:32:54;;;;;;;;;;;14.80;99.90;;;;;;4997474;28;25055;-66
2023/08/05 09:35:21;;;;;;;;;;;14.70;99.90;;;;;;5014755;28;19913;-67
2023/08/05 09:37:49;;;;;;;;;;;14.60;99.90;;;;;;5014638;28;24070;-69
2023/08/05 09:40:21;;;;;;;;;;;14.60;99.90;;;;;;5014675;28;20244;-69
2023/08/05 09:42:48;;;;;;;;;;;14.60;99.90;;;;;;5014767;28;19912;-68
2023/08/05 09:45:16;;;;;;;;;;;14.70;99.90;;;;;;5014476;28;19972;-67
2023/08/05 09:47:46;;;;;;;;;;;14.70;99.90;;;;;;5014899;28;19906;-68
2023/08/05 09:50:13;;;;;;;;;;;14.70;99.90;;;;;;5014373;28;24114;-68
2023/08/05 09:52:40;;;;;;;;;;;14.70;99.90;;;;;;4996798;28;25124;-67
2023/08/05 09:55:14;;;;;;;;;;;14.60;99.90;;;;;;5014699;28;25089;-67
2023/08/05 09:57:41;;;;;;;;;;;14.70;99.90;;;;;;5014729;28;19916;-68
2023/08/05 10:00:12;;;;;;;;;;;14.70;99.90;;;;;;5014041;28;20004;-68
2023/08/05 10:02:46;;;;;;;;;;;14.70;99.90;;;;;;5014266;28;20000;-68
2023/08/05 10:05:13;;;;;;;;;;;14.60;99.90;;;;;;5014134;28;24116;-67
2023/08/05 10:07:41;;;;;;;;;;;14.60;99.90;;;;;;5014613;28;19909;-68
2023/08/05 10:10:12;;;;;;;;;;;14.60;99.90;;;;;;5013890;28;25062;-67
2023/08/05 10:12:41;;;;;;;;;;;14.60;99.90;;;;;;5014284;28;19958;-68
2023/08/05 10:15:09;;;;;;;;;;;14.60;99.90;;;;;;5013170;28;24073;-68
2023/08/05 10:17:42;;;;;;;;;;;14.60;99.90;;;;;;5013827;28;19909;-68
2023/08/05 10:20:12;;;;;;;;;;;14.60;99.90;;;;;;5014157;28;19905;-68
2023/08/05 10:22:41;;;;;;;;;;;14.50;99.90;;;;;;5013954;28;20379;-69
2023/08/05 10:25:08;;;;;;;;;;;14.60;99.90;;;;;;5012586;28;19909;-69
2023/08/05 10:27:43;;;;;;;;;;;14.60;99.90;;;;;;5013594;28;25141;-67
2023/08/05 10:30:14;;;;;;;;;;;14.50;99.90;;;;;;5013251;28;19906;-67
2023/08/05 10:32:50;;;;;;;;;;;14.50;99.90;;;;;;5013276;28;20370;-66
2023/08/05 10:35:27;;;;;;;;;;;14.50;99.90;;;;;;5013389;28;19925;-67
2023/08/05 10:38:16;;;;;;;;;;;14.40;99.90;;;;;;5012179;28;24084;-67
2023/08/05 10:40:46;;;;;;;;;;;14.40;99.90;;;;;;5012990;28;19914;-69
2023/08/05 10:43:25;;;;;;;;;;;14.40;99.90;;;;;;5013122;28;19943;-68
2023/08/05 10:45:53;;;;;;;;;;;14.40;99.90;;;;;;5013061;28;19976;-67
2023/08/05 10:48:20;;;;;;;;;;;14.40;99.90;;;;;;4995355;28;20282;-67
2023/08/05 10:50:49;;;;;;;;;;;14.30;99.90;;;;;;5013176;28;19992;-67
2023/08/05 10:53:16;;;;;;;;;;;14.40;99.90;;;;;;5012347;28;19910;-67
2023/08/05 10:55:47;;;;;;;;;;;14.40;99.90;;;;;;4995277;28;24073;-67
2023/08/05 10:58:14;;;;;;;;;;;14.40;99.90;;;;;;5012840;28;24073;-67
2023/08/05 11:00:42;;;;;;;;;;;14.50;99.90;;;;;;5012910;28;19906;-66
2023/08/05 11:03:27;;;;;;;;;;;14.40;99.90;;;;;;5012760;28;24369;-67
2023/08/05 11:05:54;;;;;;;;;;;14.50;99.90;;;;;;5012815;28;24061;-67
2023/08/05 11:08:21;;;;;;;;;;;14.50;99.90;;;;;;5012917;28;24143;-67
2023/08/05 11:10:49;;;;;;;;;;;14.50;99.90;;;;;;5011960;28;24102;-66
2023/08/05 11:13:19;;;;;;;;;;;14.60;99.90;;;;;;5012808;28;19941;-67
2023/08/05 11:16:04;;;;;;;;;;;14.60;99.90;;;;;;5012144;28;19917;-66
2023/08/05 11:18:31;;;;;;;;;;;14.60;99.90;;;;;;5012694;28;19916;-66
2023/08/05 11:20:58;;;;;;;;;;;14.60;99.90;;;;;;5012865;28;24103;-67
2023/08/05 11:23:25;;;;;;;;;;;14.60;99.90;;;;;;4994714;28;19944;-68
2023/08/05 11:25:53;;;;;;;;;;;14.60;99.90;;;;;;5012167;28;19913;-68
2023/08/05 11:28:21;;;;;;;;;;;14.70;99.90;;;;;;5012488;28;19917;-67
2023/08/05 11:30:48;;;;;;;;;;;14.70;99.90;;;;;;5012360;28;19909;-67
2023/08/05 11:33:15;;;;;;;;;;;14.60;99.90;;;;;;5012272;28;19912;-67
2023/08/05 11:35:45;;;;;;;;;;;14.60;99.90;;;;;;5012523;28;19920;-68
2023/08/05 11:38:16;;;;;;;;;;;14.60;99.90;;;;;;5012288;28;19917;-68
2023/08/05 11:40:53;;;;;;;;;;;14.50;99.90;;;;;;5012042;28;19909;-67
2023/08/05 11:43:20;;;;;;;;;;;14.50;99.90;;;;;;5012197;28;19913;-68
2023/08/05 11:45:52;;;;;;;;;;;14.40;99.90;;;;;;5012477;28;19932;-67
2023/08/05 11:48:19;;;;;;;;;;;14.30;99.90;;;;;;5012228;28;24062;-67
2023/08/05 11:50:46;;;;;;;;;;;14.30;99.90;;;;;;5012165;28;19952;-68
2023/08/05 11:53:13;;;;;;;;;;;14.30;99.90;;;;;;5012559;28;20361;-67
2023/08/05 11:55:42;;;;;;;;;;;14.40;99.90;;;;;;5011961;28;19936;-70
2023/08/05 11:58:13;;;;;;;;;;;14.40;99.90;;;;;;5011709;28;24101;-67
2023/08/05 12:00:59;;;;;;;;;;;14.40;99.90;;;;;;5011207;28;19992;-67
2023/08/05 12:03:33;;;;;;;;;;;14.40;99.90;;;;;;5011683;28;19909;-67
2023/08/05 12:06:03;;;;;;;;;;;14.40;99.90;;;;;;5006966;28;19909;-67
2023/08/05 12:08:38;;;;;;;;;;;14.40;99.90;;;;;;5011591;28;19925;-67
2023/08/05 12:11:05;;;;;;;;;;;14.50;99.90;;;;;;5012515;28;19984;-67
2023/08/05 12:13:34;;;;;;;;;;;14.40;99.90;;;;;;5011758;28;24155;-67
2023/08/05 12:16:01;;;;;;;;;;;14.50;99.90;;;;;;5011919;28;25152;-68
2023/08/05 12:18:28;;;;;;;;;;;14.50;99.90;;;;;;5011431;28;19909;-67
2023/08/05 12:20:56;;;;;;;;;;;14.50;99.90;;;;;;5011956;28;19953;-68
2023/08/05 12:23:23;;;;;;;;;;;14.40;99.90;;;;;;5014797;28;24084;-68
2023/08/05 12:25:49;;;;;;;;;;;14.40;99.90;;;;;;5015494;28;19909;-67
2023/08/05 12:28:18;;;;;;;;;;;14.40;99.90;;;;;;5015436;28;24121;-68
2023/08/05 12:30:45;;;;;;;;;;;14.50;99.90;;;;;;5015211;28;19909;-67
2023/08/05 12:33:12;;;;;;;;;;;14.50;99.90;;;;;;5015406;28;20247;-66
2023/08/05 12:35:40;;;;;;;;;;;14.50;99.90;;;;;;5015273;28;19932;-66
2023/08/05 12:38:07;;;;;;;;;;;14.50;99.90;;;;;;5014890;28;19941;-66
2023/08/05 12:40:34;;;;;;;;;;;14.50;99.90;;;;;;5011755;28;19909;-66
2023/08/05 12:43:01;;;;;;;;;;;14.50;99.90;;;;;;5014527;28;19909;-67
2023/08/05 12:45:28;;;;;;;;;;;14.50;99.90;;;;;;5014893;28;19910;-66
2023/08/05 12:47:55;;;;;;;;;;;14.50;99.90;;;;;;5016019;28;20362;-67
2023/08/05 12:50:22;;;;;;;;;;;14.50;99.90;;;;;;5014683;28;25060;-66
2023/08/05 12:52:49;;;;;;;;;;;14.50;99.90;;;;;;5014891;28;20291;-67
2023/08/05 12:55:15;;;;;;;;;;;14.50;99.90;;;;;;5015041;28;19917;-67
2023/08/05 12:57:42;;;;;;;;;;;14.50;99.90;;;;;;5015227;28;19905;-68
2023/08/05 13:00:09;;;;;;;;;;;14.50;99.90;;;;;;5014190;28;24104;-67
2023/08/05 13:02:36;;;;;;;;;;;14.40;99.90;;;;;;5014170;28;19979;-67
2023/08/05 13:05:03;;;;;;;;;;;14.40;99.90;;;;;;5014412;28;24061;-68
2023/08/05 13:07:31;;;;;;;;;;;14.30;99.90;;;;;;5015129;28;19964;-66
2023/08/05 13:09:58;;;;;;;;;;;14.40;99.90;;;;;;5014376;28;19917;-67
2023/08/05 13:12:25;;;;;;;;;;;14.30;99.90;;;;;;5014757;28;19913;-67
2023/08/05 13:14:51;;;;;;;;;;;14.30;99.90;;;;;;5013821;28;19917;-67
2023/08/05 13:17:18;;;;;;;;;;;14.30;99.90;;;;;;5014400;28;20379;-67
2023/08/05 13:19:45;;;;;;;;;;;14.30;99.90;;;;;;5015463;28;19928;-68
2023/08/05 13:22:12;;;;;;;;;;;14.30;99.90;;;;;;5014162;28;24157;-66
2023/08/05 13:24:39;;;;;;;;;;;14.20;99.90;;;;;;5014130;28;19909;-66
2023/08/05 13:27:06;;;;;;;;;;;14.20;99.90;;;;;;5014222;28;19979;-66
2023/08/05 13:29:33;;;;;;;;;;;14.10;99.90;;;;;;5014871;28;24100;-66
2023/08/05 13:32:00;;;;;;;;;;;14.20;99.90;;;;;;5014811;28;19905;-66
2023/08/05 13:34:27;;;;;;;;;;;14.20;99.90;;;;;;5013547;28;20091;-66
2023/08/05 13:36:53;;;;;;;;;;;14.10;99.90;;;;;;5014652;28;25090;-67
2023/08/05 13:39:22;;;;;;;;;;;14.10;99.90;;;;;;4997266;28;24068;-68
2023/08/05 13:41:49;;;;;;;;;;;14.00;99.90;;;;;;5014360;28;20248;-68
2023/08/05 13:44:16;;;;;;;;;;;13.90;99.90;;;;;;5013315;28;19910;-66
2023/08/05 13:46:43;;;;;;;;;;;13.80;99.90;;;;;;5013930;28;19924;-67
2023/08/05 13:49:10;;;;;;;;;;;13.80;99.90;;;;;;5014241;28;24095;-67
2023/08/05 13:51:37;;;;;;;;;;;13.70;99.90;;;;;;5014550;28;24088;-66
2023/08/05 13:54:03;;;;;;;;;;;13.70;99.90;;;;;;5014067;28;19905;-66
2023/08/05 13:56:30;;;;;;;;;;;13.70;99.90;;;;;;5013281;28;19910;-66
2023/08/05 13:58:57;;;;;;;;;;;13.70;99.90;;;;;;5013973;28;19909;-66
2023/08/05 14:01:24;;;;;;;;;;;13.60;99.90;;;;;;5013753;28;19928;-66
2023/08/05 14:03:51;;;;;;;;;;;13.60;99.90;;;;;;5013331;28;20275;-66
2023/08/05 14:06:18;;;;;;;;;;;13.60;99.90;;;;;;5013813;28;19909;-67
2023/08/05 14:08:45;;;;;;;;;;;13.60;99.90;;;;;;5013498;28;19963;-66
2023/08/05 14:11:12;;;;;;;;;;;13.60;99.90;;;;;;5014129;28;19905;-66
2023/08/05 14:13:39;;;;;;;;;;;13.70;99.90;;;;;;5013887;28;19988;-67
2023/08/05 14:16:05;;;;;;;;;;;13.80;99.90;;;;;;5012885;28;19956;-66
2023/08/05 14:18:32;;;;;;;;;;;13.80;99.90;;;;;;5011821;28;25124;-66